Terminal Aerodrome Forecast
Issued by NWS

Home | Current Version | Previous Version | Text Only | Print | Product List | Glossary Off
Versions: 1 2 3 4 5 6 7 8 9 10 11 12 13 14

000
FTUS43 KBIS 272340
TAFMOT
TAF
KMOT 272340Z 2800/2824 05007KT P6SM VCSH SCT040 BKN090
      TEMPO 2801/2803 -SHRA BKN045
     FM280500 08005KT P6SM SCT060=

USA.gov is the U.S. government's official web portal to all federal, state and local government web resources and services.